createdAt,value
2023-03-26T00:01:41.354Z,11.60
2023-03-26T00:04:09.480Z,11.66
2023-03-26T00:06:40.091Z,11.70
2023-03-26T00:09:13.563Z,11.84
2023-03-26T00:11:43.468Z,11.96
2023-03-26T00:14:14.203Z,12.06
2023-03-26T00:16:42.930Z,12.10
2023-03-26T00:19:12.770Z,12.06
2023-03-26T00:21:41.618Z,12.09
2023-03-26T00:24:15.290Z,12.13
2023-03-26T00:26:45.046Z,12.05
2023-03-26T00:29:15.748Z,12.01
2023-03-26T00:31:46.366Z,11.92
2023-03-26T00:34:18.826Z,11.76
2023-03-26T00:36:47.489Z,11.60
2023-03-26T00:39:18.071Z,11.40
2023-03-26T00:41:46.228Z,11.21
2023-03-26T00:44:14.467Z,11.01
2023-03-26T00:46:42.873Z,10.91
2023-03-26T00:49:11.321Z,10.74
2023-03-26T00:51:39.792Z,10.67
2023-03-26T00:54:09.504Z,10.52
2023-03-26T00:56:38.896Z,10.39
2023-03-26T00:59:09.339Z,10.28
2023-03-26T01:01:38.134Z,10.19
2023-03-26T01:04:27.533Z,10.09
2023-03-26T01:07:01.275Z,9.99
2023-03-26T01:09:36.799Z,9.93
2023-03-26T01:12:08.590Z,9.89
2023-03-26T01:14:38.984Z,9.87
2023-03-26T01:17:09.288Z,9.85
2023-03-26T01:20:15.175Z,9.89
2023-03-26T01:22:50.024Z,9.89
2023-03-26T01:25:19.117Z,9.85
2023-03-26T01:27:50.771Z,9.88
2023-03-26T01:30:37.222Z,9.87
2023-03-26T01:33:30.224Z,9.82
2023-03-26T01:36:23.645Z,9.84
2023-03-26T01:39:08.318Z,9.78
2023-03-26T01:42:03.250Z,9.74
2023-03-26T01:45:07.456Z,9.77
2023-03-26T01:47:38.193Z,9.73
2023-03-26T01:50:08.045Z,9.66
2023-03-26T01:52:36.398Z,9.57
2023-03-26T01:55:06.705Z,9.52
2023-03-26T01:57:52.808Z,9.48
2023-03-26T02:00:28.872Z,9.43
2023-03-26T02:03:19.366Z,9.48
2023-03-26T02:05:53.980Z,9.59
2023-03-26T02:08:41.446Z,9.71
2023-03-26T02:11:13.214Z,9.88
2023-03-26T02:13:44.376Z,9.99
2023-03-26T02:16:16.466Z,10.08
2023-03-26T02:18:47.633Z,10.08
2023-03-26T02:21:21.767Z,10.04
2023-03-26T02:23:57.826Z,10.03
2023-03-26T02:26:26.271Z,10.09
2023-03-26T02:29:02.319Z,10.17
2023-03-26T02:31:30.746Z,10.20
2023-03-26T02:33:59.401Z,10.29
2023-03-26T02:36:28.607Z,10.39
2023-03-26T02:39:00.438Z,10.47
2023-03-26T02:41:30.584Z,10.61
2023-03-26T02:44:02.084Z,10.74
2023-03-26T02:46:48.770Z,10.84
2023-03-26T02:49:35.428Z,10.98
2023-03-26T02:52:06.888Z,11.01
2023-03-26T02:54:37.228Z,11.05
2023-03-26T02:57:20.324Z,11.05
2023-03-26T02:59:52.870Z,11.10
2023-03-26T03:02:39.869Z,11.08
2023-03-26T03:05:26.847Z,11.13
2023-03-26T03:08:13.836Z,11.17
2023-03-26T03:11:04.243Z,11.07
2023-03-26T03:13:40.402Z,10.72
2023-03-26T03:16:09.289Z,10.37
2023-03-26T03:18:37.982Z,10.14
2023-03-26T03:21:07.070Z,10.02
2023-03-26T03:23:35.561Z,9.84
2023-03-26T03:26:21.830Z,9.65
2023-03-26T03:28:52.774Z,9.56
2023-03-26T03:31:21.842Z,9.65
2023-03-26T03:33:50.674Z,9.63
2023-03-26T03:36:22.716Z,9.56
2023-03-26T03:39:02.939Z,9.46
2023-03-26T03:41:31.659Z,9.39
2023-03-26T03:44:01.804Z,9.27
2023-03-26T03:46:32.578Z,9.20
2023-03-26T03:49:01.200Z,9.12
2023-03-26T03:51:36.642Z,9.01
2023-03-26T03:54:10.749Z,8.84
2023-03-26T03:56:49.197Z,8.66
2023-03-26T03:59:17.797Z,8.55
2023-03-26T04:01:50.909Z,8.42
2023-03-26T04:04:34.450Z,8.34
2023-03-26T04:07:07.831Z,8.27
2023-03-26T04:10:07.288Z,8.26
2023-03-26T04:12:54.010Z,8.28
2023-03-26T04:15:33.066Z,8.29
2023-03-26T04:18:01.342Z,8.31
2023-03-26T04:20:30.073Z,8.39
2023-03-26T04:22:58.246Z,8.46
2023-03-26T04:25:30.540Z,8.59
2023-03-26T04:28:09.165Z,8.71
2023-03-26T04:31:00.967Z,8.78
2023-03-26T04:33:42.293Z,8.82
2023-03-26T04:36:11.954Z,8.93
2023-03-26T04:38:43.522Z,9.15
2023-03-26T04:41:13.335Z,9.70
2023-03-26T04:43:54.556Z,10.58
2023-03-26T04:46:37.769Z,11.70
2023-03-26T04:49:12.264Z,12.81
2023-03-26T04:51:46.352Z,13.78
2023-03-26T04:54:33.356Z,14.57
2023-03-26T04:57:29.097Z,15.00
2023-03-26T05:00:18.625Z,15.45
2023-03-26T05:02:54.349Z,15.52
2023-03-26T05:05:23.069Z,15.62
2023-03-26T05:07:51.864Z,16.02
2023-03-26T05:10:21.794Z,16.07
2023-03-26T05:12:54.670Z,16.19
2023-03-26T05:15:32.987Z,16.55
2023-03-26T05:18:14.243Z,16.90
2023-03-26T05:20:46.572Z,17.04
2023-03-26T05:23:14.787Z,17.25
2023-03-26T05:25:47.234Z,17.36
2023-03-26T05:28:24.381Z,18.08
2023-03-26T05:31:08.352Z,18.41
2023-03-26T05:33:39.257Z,18.98
2023-03-26T05:36:15.376Z,19.21
2023-03-26T05:38:54.227Z,19.68
2023-03-26T05:41:52.976Z,20.07
2023-03-26T05:44:22.438Z,20.54
2023-03-26T05:46:51.329Z,21.19
2023-03-26T05:49:22.455Z,21.61
2023-03-26T05:51:50.657Z,22.24
2023-03-26T05:54:36.311Z,22.41
2023-03-26T05:57:24.044Z,22.15
2023-03-26T06:00:12.216Z,22.14
2023-03-26T06:02:47.225Z,22.17
2023-03-26T06:05:32.893Z,22.32
2023-03-26T06:08:19.767Z,22.96
2023-03-26T06:11:02.880Z,23.70
2023-03-26T06:13:35.482Z,24.72
2023-03-26T06:16:04.127Z,25.70
2023-03-26T06:18:35.801Z,26.26
2023-03-26T06:21:29.741Z,26.16
2023-03-26T06:24:03.292Z,25.69
2023-03-26T06:26:47.372Z,25.84
2023-03-26T06:29:38.628Z,25.99
2023-03-26T06:32:19.588Z,25.65
2023-03-26T06:35:03.303Z,25.30
2023-03-26T06:37:31.544Z,25.34
2023-03-26T06:40:02.701Z,25.58
2023-03-26T06:43:10.902Z,25.92
2023-03-26T06:45:57.557Z,26.28
2023-03-26T06:48:44.507Z,26.36
2023-03-26T06:51:29.162Z,26.59
2023-03-26T06:54:09.881Z,26.23
2023-03-26T06:56:54.549Z,26.32
2023-03-26T06:59:43.112Z,26.34
2023-03-26T07:02:30.331Z,26.28
2023-03-26T07:05:17.675Z,26.39
2023-03-26T07:08:04.589Z,26.77
2023-03-26T07:10:51.358Z,26.61
2023-03-26T07:13:19.624Z,26.65
2023-03-26T07:16:17.174Z,25.72
2023-03-26T07:19:04.539Z,25.60
2023-03-26T07:21:37.363Z,25.61
2023-03-26T07:24:15.200Z,25.69
2023-03-26T07:26:58.904Z,25.15
2023-03-26T07:29:48.512Z,24.77
2023-03-26T07:32:36.667Z,24.52
2023-03-26T07:35:47.261Z,23.17
2023-03-26T07:39:03.919Z,22.24
2023-03-26T07:41:51.194Z,21.09
2023-03-26T07:45:10.617Z,19.97
2023-03-26T07:47:50.209Z,19.26
2023-03-26T07:50:27.034Z,18.76
2023-03-26T07:53:10.218Z,18.92
2023-03-26T07:56:11.348Z,19.66
2023-03-26T07:59:06.835Z,19.35
2023-03-26T08:01:55.160Z,19.26
2023-03-26T08:04:53.411Z,20.04
2023-03-26T08:08:18.756Z,20.31
2023-03-26T08:11:28.811Z,21.43
2023-03-26T08:14:28.665Z,21.69
2023-03-26T08:17:22.849Z,21.76
2023-03-26T08:20:06.048Z,21.95
2023-03-26T08:22:39.013Z,21.72
2023-03-26T08:25:19.852Z,21.76
2023-03-26T08:28:17.057Z,21.68
2023-03-26T08:30:47.086Z,21.16
2023-03-26T08:33:19.119Z,21.34
2023-03-26T08:35:50.137Z,21.68
2023-03-26T08:38:20.721Z,21.65
2023-03-26T08:41:01.201Z,20.83
2023-03-26T08:44:07.163Z,20.75
2023-03-26T08:47:02.016Z,21.45
2023-03-26T08:49:45.840Z,21.81
2023-03-26T08:52:22.763Z,22.11
2023-03-26T08:54:57.406Z,22.03
2023-03-26T08:57:50.929Z,21.67
2023-03-26T09:00:41.332Z,21.51
2023-03-26T09:03:21.682Z,21.27
2023-03-26T09:05:55.730Z,20.77
2023-03-26T09:08:38.085Z,20.21
2023-03-26T09:12:16.218Z,20.26
2023-03-26T09:15:02.806Z,19.90
2023-03-26T09:17:57.853Z,18.74
2023-03-26T09:21:00.111Z,18.89
2023-03-26T09:23:46.326Z,18.77
2023-03-26T09:26:47.918Z,18.85
2023-03-26T09:29:53.075Z,18.73
2023-03-26T09:32:36.341Z,18.91
2023-03-26T09:35:18.935Z,19.17
2023-03-26T09:38:22.534Z,18.57
2023-03-26T09:40:58.823Z,18.44
2023-03-26T09:43:49.078Z,18.01
2023-03-26T09:46:52.889Z,17.39
2023-03-26T09:49:56.498Z,16.81
2023-03-26T09:52:55.690Z,17.31
2023-03-26T09:55:42.914Z,17.71
2023-03-26T09:58:48.967Z,17.79
2023-03-26T10:01:18.599Z,18.29
2023-03-26T10:04:16.808Z,19.09
2023-03-26T10:06:54.048Z,18.95
2023-03-26T10:09:43.647Z,18.91
2023-03-26T10:12:42.835Z,18.49
2023-03-26T10:15:23.945Z,18.76
2023-03-26T10:18:04.888Z,18.61
2023-03-26T10:21:04.254Z,18.95
2023-03-26T10:23:54.215Z,18.91
2023-03-26T10:26:28.476Z,18.84
2023-03-26T10:29:14.915Z,18.82
2023-03-26T10:32:44.374Z,19.13
2023-03-26T10:35:31.269Z,19.04
2023-03-26T10:38:15.757Z,18.41
2023-03-26T10:40:51.143Z,18.02
2023-03-26T10:43:36.292Z,17.74
2023-03-26T10:46:42.880Z,17.65
2023-03-26T10:49:33.311Z,17.41
2023-03-26T10:52:08.095Z,17.04
2023-03-26T10:54:56.838Z,16.43
2023-03-26T10:57:54.162Z,16.10
2023-03-26T11:00:26.183Z,16.34
2023-03-26T11:03:15.322Z,16.75
2023-03-26T11:06:03.547Z,16.59
2023-03-26T11:08:32.292Z,16.65
2023-03-26T11:11:26.157Z,16.19
2023-03-26T11:14:01.479Z,15.83
2023-03-26T11:16:45.217Z,15.77
2023-03-26T11:19:31.562Z,15.84
2023-03-26T11:22:09.101Z,16.07
2023-03-26T11:25:00.495Z,16.33
2023-03-26T11:27:56.061Z,16.49
2023-03-26T11:30:38.924Z,16.50
2023-03-26T11:33:12.032Z,16.28
2023-03-26T11:35:51.142Z,16.44
2023-03-26T11:38:28.979Z,16.70
2023-03-26T11:40:59.271Z,16.66
2023-03-26T11:43:49.711Z,16.75
2023-03-26T11:46:21.144Z,16.60
2023-03-26T11:48:59.976Z,16.74
2023-03-26T11:51:33.956Z,17.02
2023-03-26T11:54:03.820Z,17.22
2023-03-26T11:57:04.541Z,17.36
2023-03-26T11:59:55.678Z,17.24
2023-03-26T12:02:29.683Z,17.41
2023-03-26T12:05:22.779Z,17.81
2023-03-26T12:07:59.803Z,17.83
2023-03-26T12:10:31.636Z,17.93
2023-03-26T12:13:23.231Z,18.21
2023-03-26T12:15:51.670Z,17.85
2023-03-26T12:18:28.281Z,17.50
2023-03-26T12:21:08.252Z,16.97
2023-03-26T12:23:43.746Z,17.00
2023-03-26T12:26:20.883Z,17.03
2023-03-26T12:28:51.424Z,17.02
2023-03-26T12:31:19.802Z,16.75
2023-03-26T12:34:06.704Z,16.82
2023-03-26T12:36:39.068Z,16.94
2023-03-26T12:40:07.208Z,17.03
2023-03-26T12:44:49.732Z,17.03
2023-03-26T12:45:43.452Z,16.92
2023-03-26T12:48:15.832Z,16.60
2023-03-26T12:51:17.464Z,16.53
2023-03-26T12:53:45.621Z,16.51
2023-03-26T12:56:21.979Z,16.69
2023-03-26T12:58:55.228Z,16.79
2023-03-26T13:01:52.782Z,16.91
2023-03-26T13:04:26.953Z,16.92
2023-03-26T13:07:04.561Z,16.85
2023-03-26T13:09:42.338Z,16.68
2023-03-26T13:12:34.465Z,16.66
2023-03-26T13:15:15.864Z,16.54
2023-03-26T13:18:03.733Z,16.25
2023-03-26T13:20:48.920Z,16.36
2023-03-26T13:23:35.466Z,16.45
2023-03-26T13:26:22.490Z,16.47
2023-03-26T13:29:17.625Z,16.45
2023-03-26T13:32:09.218Z,16.57
2023-03-26T13:34:38.390Z,16.82
2023-03-26T13:37:06.505Z,16.75
2023-03-26T13:39:50.150Z,16.77
2023-03-26T13:42:59.933Z,16.83
2023-03-26T13:45:39.820Z,16.81
2023-03-26T13:48:16.947Z,16.90
2023-03-26T13:51:01.961Z,16.96
2023-03-26T13:53:40.888Z,17.14
2023-03-26T13:56:13.875Z,17.18
2023-03-26T13:58:50.861Z,17.21
2023-03-26T14:01:43.467Z,17.13
2023-03-26T14:04:34.117Z,17.07
2023-03-26T14:07:25.464Z,17.04
2023-03-26T14:09:57.573Z,16.80
2023-03-26T14:12:49.420Z,16.62
2023-03-26T14:15:29.642Z,16.61
2023-03-26T14:18:41.186Z,16.70
2023-03-26T14:21:46.691Z,16.61
2023-03-26T14:24:26.627Z,16.56
2023-03-26T14:27:07.838Z,16.57
2023-03-26T14:29:56.634Z,16.51
2023-03-26T14:32:44.999Z,16.37
2023-03-26T14:35:47.332Z,16.24
2023-03-26T14:38:33.940Z,16.06
2023-03-26T14:41:24.511Z,16.11
2023-03-26T14:44:15.829Z,16.11
2023-03-26T14:47:02.882Z,15.99
2023-03-26T14:49:43.939Z,15.84
2023-03-26T14:52:31.757Z,15.80
2023-03-26T14:55:05.672Z,15.75
2023-03-26T14:57:52.682Z,15.70
2023-03-26T15:00:48.618Z,15.64
2023-03-26T15:03:38.997Z,15.46
2023-03-26T15:06:25.918Z,15.25
2023-03-26T15:09:21.740Z,15.03
2023-03-26T15:12:12.238Z,14.79
2023-03-26T15:15:10.722Z,14.52
2023-03-26T15:17:38.823Z,14.32
2023-03-26T15:20:27.593Z,14.20
2023-03-26T15:23:05.381Z,14.20
2023-03-26T15:25:52.073Z,14.24
2023-03-26T15:28:57.811Z,14.38
2023-03-26T15:32:03.669Z,14.54
2023-03-26T15:34:34.864Z,14.69
2023-03-26T15:37:12.194Z,14.95
2023-03-26T15:40:08.183Z,15.14
2023-03-26T15:43:00.041Z,15.47
2023-03-26T15:45:36.970Z,15.78
2023-03-26T15:48:14.028Z,15.94
2023-03-26T15:50:56.731Z,15.98
2023-03-26T15:53:41.385Z,15.82
2023-03-26T15:56:43.189Z,15.66
2023-03-26T15:59:15.741Z,15.69
2023-03-26T16:02:17.715Z,15.65
2023-03-26T16:05:03.399Z,15.60
2023-03-26T16:08:09.628Z,15.64
2023-03-26T16:10:58.499Z,15.49
2023-03-26T16:13:49.863Z,15.36
2023-03-26T16:16:22.959Z,15.24
2023-03-26T16:19:18.298Z,15.21
2023-03-26T16:22:00.664Z,15.15
2023-03-26T16:24:33.417Z,15.05
2023-03-26T16:27:29.218Z,14.96
2023-03-26T16:30:01.682Z,14.81
2023-03-26T16:32:35.157Z,14.68
2023-03-26T16:35:15.754Z,14.59
2023-03-26T16:37:52.103Z,14.58
2023-03-26T16:40:27.295Z,14.52
2023-03-26T16:43:24.322Z,14.40
2023-03-26T16:46:11.259Z,14.12
2023-03-26T16:49:15.854Z,13.92
2023-03-26T16:52:02.715Z,13.84
2023-03-26T16:54:39.569Z,13.77
2023-03-26T16:57:29.370Z,13.73
2023-03-26T17:00:13.968Z,13.72
2023-03-26T17:03:17.835Z,13.72
2023-03-26T17:05:58.211Z,13.73
2023-03-26T17:08:38.588Z,13.64
2023-03-26T17:11:15.908Z,13.58
2023-03-26T17:13:49.058Z,13.38
2023-03-26T17:16:27.097Z,13.22
2023-03-26T17:19:19.224Z,13.08
2023-03-26T17:22:13.894Z,12.90
2023-03-26T17:25:32.759Z,12.83
2023-03-26T17:28:28.884Z,12.76
2023-03-26T17:31:15.993Z,12.78
2023-03-26T17:33:44.783Z,12.83
2023-03-26T17:36:12.862Z,12.84
2023-03-26T17:38:44.903Z,12.79
2023-03-26T17:41:35.859Z,12.78
2023-03-26T17:44:47.325Z,12.77
2023-03-26T17:47:23.922Z,12.72
2023-03-26T17:50:00.057Z,12.78
2023-03-26T17:53:01.419Z,12.90
2023-03-26T17:55:33.159Z,12.99
2023-03-26T17:58:04.048Z,13.16
2023-03-26T18:00:35.257Z,13.34
2023-03-26T18:03:17.594Z,13.39
2023-03-26T18:05:47.025Z,13.35
2023-03-26T18:08:15.439Z,13.24
2023-03-26T18:11:02.045Z,13.07
2023-03-26T18:13:47.104Z,12.97
2023-03-26T18:16:39.358Z,12.79
2023-03-26T18:19:19.487Z,12.75
2023-03-26T18:21:50.959Z,12.62
2023-03-26T18:24:37.662Z,12.52
2023-03-26T18:27:07.051Z,12.45
2023-03-26T18:29:36.526Z,12.41
2023-03-26T18:32:09.216Z,12.37
2023-03-26T18:34:45.600Z,12.39
2023-03-26T18:37:30.271Z,12.34
2023-03-26T18:40:15.506Z,12.40
2023-03-26T18:42:46.788Z,12.38
2023-03-26T18:45:24.874Z,12.38
2023-03-26T18:47:58.687Z,12.52
2023-03-26T18:50:30.246Z,12.77
2023-03-26T18:53:00.588Z,12.72
2023-03-26T18:55:30.400Z,12.61
2023-03-26T18:57:58.727Z,12.64
2023-03-26T19:00:30.462Z,12.74
2023-03-26T19:03:08.294Z,12.80
2023-03-26T19:05:37.396Z,12.81
2023-03-26T19:08:06.467Z,12.71
2023-03-26T19:10:34.782Z,12.71
2023-03-26T19:13:04.420Z,12.70
2023-03-26T19:15:36.210Z,12.59
2023-03-26T19:18:09.883Z,12.33
2023-03-26T19:20:42.811Z,12.18
2023-03-26T19:23:20.015Z,12.24
2023-03-26T19:26:01.731Z,12.29
2023-03-26T19:28:49.297Z,12.28
2023-03-26T19:31:39.184Z,12.30
2023-03-26T19:34:17.552Z,12.37
2023-03-26T19:37:04.398Z,12.23
2023-03-26T19:39:42.866Z,12.16
2023-03-26T19:42:17.633Z,12.20
2023-03-26T19:44:46.456Z,12.23
2023-03-26T19:47:39.317Z,12.10
2023-03-26T19:50:15.856Z,11.94
2023-03-26T19:52:45.288Z,11.78
2023-03-26T19:55:24.197Z,11.63
2023-03-26T19:57:52.286Z,11.54
2023-03-26T20:00:20.567Z,11.25
2023-03-26T20:02:49.715Z,11.27
2023-03-26T20:05:27.360Z,11.35
2023-03-26T20:08:00.667Z,11.29
2023-03-26T20:10:29.376Z,11.41
2023-03-26T20:12:58.532Z,11.57
2023-03-26T20:15:29.882Z,11.68
2023-03-26T20:17:58.184Z,11.79
2023-03-26T20:20:27.657Z,11.74
2023-03-26T20:22:55.947Z,11.63
2023-03-26T20:25:30.233Z,11.69
2023-03-26T20:27:59.861Z,11.69
2023-03-26T20:30:37.313Z,11.67
2023-03-26T20:33:12.184Z,11.59
2023-03-26T20:35:42.984Z,11.66
2023-03-26T20:38:12.171Z,11.55
2023-03-26T20:40:41.114Z,11.43
2023-03-26T20:43:12.554Z,11.48
2023-03-26T20:45:41.795Z,11.43
2023-03-26T20:48:13.144Z,11.24
2023-03-26T20:50:50.378Z,11.03
2023-03-26T20:53:20.470Z,10.94
2023-03-26T20:55:51.038Z,10.81
2023-03-26T20:58:31.079Z,10.64
2023-03-26T21:01:02.145Z,10.46
2023-03-26T21:03:30.871Z,10.32
2023-03-26T21:06:01.723Z,10.16
2023-03-26T21:08:36.904Z,9.95
2023-03-26T21:11:15.965Z,9.70
2023-03-26T21:14:03.704Z,9.77
2023-03-26T21:16:32.704Z,9.95
2023-03-26T21:19:01.155Z,9.97
2023-03-26T21:21:57.733Z,10.01
2023-03-26T21:24:37.898Z,10.19
2023-03-26T21:27:31.076Z,10.41
2023-03-26T21:30:00.100Z,10.61
2023-03-26T21:32:30.137Z,10.64
2023-03-26T21:34:59.625Z,10.65
2023-03-26T21:37:28.530Z,10.31
2023-03-26T21:39:57.441Z,10.08
2023-03-26T21:42:29.443Z,10.05
2023-03-26T21:44:58.289Z,10.01
2023-03-26T21:47:27.175Z,10.01
2023-03-26T21:49:55.795Z,10.12
2023-03-26T21:52:25.427Z,10.05
2023-03-26T21:54:53.969Z,9.68
2023-03-26T21:57:54.164Z,9.52
2023-03-26T22:00:33.575Z,9.37
2023-03-26T22:03:42.188Z,9.40
2023-03-26T22:06:13.512Z,9.29
2023-03-26T22:08:43.140Z,9.16
2023-03-26T22:11:12.732Z,9.13
2023-03-26T22:13:40.922Z,9.20
2023-03-26T22:16:10.852Z,9.29
2023-03-26T22:18:39.336Z,9.30
2023-03-26T22:21:07.882Z,9.29
2023-03-26T22:23:38.483Z,9.12
2023-03-26T22:26:07.417Z,9.15
2023-03-26T22:28:36.653Z,9.27
2023-03-26T22:31:09.104Z,9.33
2023-03-26T22:33:40.160Z,9.34
2023-03-26T22:36:22.338Z,9.42
2023-03-26T22:38:55.334Z,9.52
2023-03-26T22:41:23.645Z,9.53
2023-03-26T22:43:56.837Z,9.57
2023-03-26T22:46:26.727Z,9.54
2023-03-26T22:48:57.090Z,9.54
2023-03-26T22:51:25.502Z,9.56
2023-03-26T22:53:53.604Z,9.51
2023-03-26T22:56:21.767Z,9.54
2023-03-26T22:58:49.964Z,9.65
2023-03-26T23:03:51.368Z,10.00
2023-03-26T23:06:19.602Z,9.98
2023-03-26T23:08:47.813Z,9.74
2023-03-26T23:11:22.144Z,9.55
2023-03-26T23:13:50.534Z,9.56
2023-03-26T23:16:20.326Z,9.35
2023-03-26T23:18:48.960Z,9.08
2023-03-26T23:21:22.137Z,9.00
2023-03-26T23:23:52.311Z,9.09
2023-03-26T23:26:21.575Z,9.18
2023-03-26T23:28:51.238Z,9.25
2023-03-26T23:31:19.600Z,9.43
2023-03-26T23:33:47.701Z,9.60
2023-03-26T23:36:18.606Z,9.50
2023-03-26T23:38:48.545Z,9.56
2023-03-26T23:41:21.721Z,9.63
2023-03-26T23:43:54.192Z,9.71
2023-03-26T23:46:30.860Z,9.49
2023-03-26T23:49:02.472Z,9.28
2023-03-26T23:51:32.375Z,9.40
2023-03-26T23:54:00.788Z,9.40
2023-03-26T23:56:32.448Z,9.25
2023-03-26T23:59:00.907Z,9.10
